sensor_id;sensor_type;location;lat;lon;timestamp;temperature;humidity
15357;DHT22;7778;48.792;9.260;2022-09-13T00:02:02;15.50;99.90
15357;DHT22;7778;48.792;9.260;2022-09-13T00:04:48;15.60;99.90
15357;DHT22;7778;48.792;9.260;2022-09-13T00:07:33;15.70;99.90
15357;DHT22;7778;48.792;9.260;2022-09-13T00:10:25;15.90;99.90
15357;DHT22;7778;48.792;9.260;2022-09-13T00:13:25;15.90;99.90
15357;DHT22;7778;48.792;9.260;2022-09-13T00:16:12;15.90;99.90
15357;DHT22;7778;48.792;9.260;2022-09-13T00:19:00;16.00;99.90
15357;DHT22;7778;48.792;9.260;2022-09-13T00:21:46;16.00;99.90
15357;DHT22;7778;48.792;9.260;2022-09-13T00:24:32;16.00;99.90
15357;DHT22;7778;48.792;9.260;2022-09-13T00:27:28;15.90;99.90
15357;DHT22;7778;48.792;9.260;2022-09-13T00:30:14;15.80;99.90
15357;DHT22;7778;48.792;9.260;2022-09-13T00:33:03;15.80;99.90
15357;DHT22;7778;48.792;9.260;2022-09-13T00:35:50;15.70;99.90
15357;DHT22;7778;48.792;9.260;2022-09-13T00:38:36;15.60;99.90
15357;DHT22;7778;48.792;9.260;2022-09-13T00:41:22;15.50;99.90
15357;DHT22;7778;48.792;9.260;2022-09-13T00:47:36;15.40;99.90
15357;DHT22;7778;48.792;9.260;2022-09-13T00:50:31;15.30;99.90
15357;DHT22;7778;48.792;9.260;2022-09-13T00:53:23;15.20;99.90
15357;DHT22;7778;48.792;9.260;2022-09-13T00:56:17;15.20;99.90
15357;DHT22;7778;48.792;9.260;2022-09-13T00:59:09;15.10;99.90
15357;DHT22;7778;48.792;9.260;2022-09-13T01:01:58;15.10;99.90
15357;DHT22;7778;48.792;9.260;2022-09-13T01:04:47;15.40;99.90
15357;DHT22;7778;48.792;9.260;2022-09-13T01:07:33;15.40;99.90
15357;DHT22;7778;48.792;9.260;2022-09-13T01:10:26;15.50;99.90
15357;DHT22;7778;48.792;9.260;2022-09-13T01:13:17;15.40;99.90
15357;DHT22;7778;48.792;9.260;2022-09-13T01:16:07;15.40;99.90
15357;DHT22;7778;48.792;9.260;2022-09-13T01:18:53;15.40;99.90
15357;DHT22;7778;48.792;9.260;2022-09-13T01:22:22;15.40;99.90
15357;DHT22;7778;48.792;9.260;2022-09-13T01:29:27;15.50;99.90
15357;DHT22;7778;48.792;9.260;2022-09-13T01:36:30;15.70;99.90
15357;DHT22;7778;48.792;9.260;2022-09-13T01:39:34;15.70;99.90
15357;DHT22;7778;48.792;9.260;2022-09-13T01:42:40;15.70;99.90
15357;DHT22;7778;48.792;9.260;2022-09-13T01:45:37;15.70;99.90
15357;DHT22;7778;48.792;9.260;2022-09-13T01:48:40;15.80;99.90
15357;DHT22;7778;48.792;9.260;2022-09-13T01:51:41;15.70;99.90
15357;DHT22;7778;48.792;9.260;2022-09-13T01:54:36;15.70;99.90
15357;DHT22;7778;48.792;9.260;2022-09-13T01:57:33;15.70;99.90
15357;DHT22;7778;48.792;9.260;2022-09-13T02:00:20;15.70;99.90
15357;DHT22;7778;48.792;9.260;2022-09-13T02:03:09;15.70;99.90
15357;DHT22;7778;48.792;9.260;2022-09-13T02:06:03;15.70;99.90
15357;DHT22;7778;48.792;9.260;2022-09-13T02:08:53;15.70;99.90
15357;DHT22;7778;48.792;9.260;2022-09-13T02:11:43;15.70;99.90
15357;DHT22;7778;48.792;9.260;2022-09-13T02:14:34;15.80;99.90
15357;DHT22;7778;48.792;9.260;2022-09-13T02:17:23;15.60;99.90
15357;DHT22;7778;48.792;9.260;2022-09-13T02:20:13;15.50;99.90
15357;DHT22;7778;48.792;9.260;2022-09-13T02:23:10;15.20;99.90
15357;DHT22;7778;48.792;9.260;2022-09-13T02:25:59;15.30;99.90
15357;DHT22;7778;48.792;9.260;2022-09-13T02:28:50;15.40;99.90
15357;DHT22;7778;48.792;9.260;2022-09-13T02:31:42;15.60;99.90
15357;DHT22;7778;48.792;9.260;2022-09-13T02:34:37;15.40;99.90
15357;DHT22;7778;48.792;9.260;2022-09-13T02:37:35;15.40;99.90
15357;DHT22;7778;48.792;9.260;2022-09-13T02:40:38;15.40;99.90
15357;DHT22;7778;48.792;9.260;2022-09-13T02:43:34;15.40;99.90
15357;DHT22;7778;48.792;9.260;2022-09-13T02:46:46;15.40;99.90
15357;DHT22;7778;48.792;9.260;2022-09-13T02:49:50;15.40;99.90
15357;DHT22;7778;48.792;9.260;2022-09-13T02:52:47;15.50;99.90
15357;DHT22;7778;48.792;9.260;2022-09-13T02:55:42;15.60;99.90
15357;DHT22;7778;48.792;9.260;2022-09-13T02:58:34;15.60;99.90
15357;DHT22;7778;48.792;9.260;2022-09-13T03:01:24;15.70;99.90
15357;DHT22;7778;48.792;9.260;2022-09-13T03:04:10;15.80;99.90
15357;DHT22;7778;48.792;9.260;2022-09-13T03:06:56;15.70;99.90
15357;DHT22;7778;48.792;9.260;2022-09-13T03:09:45;15.60;99.90
15357;DHT22;7778;48.792;9.260;2022-09-13T03:16:02;15.50;99.90
15357;DHT22;7778;48.792;9.260;2022-09-13T03:19:04;15.50;99.90
15357;DHT22;7778;48.792;9.260;2022-09-13T03:22:15;15.70;99.90
15357;DHT22;7778;48.792;9.260;2022-09-13T03:25:17;15.80;99.90
15357;DHT22;7778;48.792;9.260;2022-09-13T03:28:19;15.70;99.90
15357;DHT22;7778;48.792;9.260;2022-09-13T03:31:11;15.70;99.90
15357;DHT22;7778;48.792;9.260;2022-09-13T03:34:07;15.90;99.90
15357;DHT22;7778;48.792;9.260;2022-09-13T03:36:56;16.00;99.90
15357;DHT22;7778;48.792;9.260;2022-09-13T03:39:51;16.00;99.90
15357;DHT22;7778;48.792;9.260;2022-09-13T03:42:43;15.80;99.90
15357;DHT22;7778;48.792;9.260;2022-09-13T03:45:37;15.70;99.90
15357;DHT22;7778;48.792;9.260;2022-09-13T03:48:31;15.70;99.90
15357;DHT22;7778;48.792;9.260;2022-09-13T03:51:30;15.70;99.90
15357;DHT22;7778;48.792;9.260;2022-09-13T03:54:30;15.70;99.90
15357;DHT22;7778;48.792;9.260;2022-09-13T03:57:29;15.60;99.90
15357;DHT22;7778;48.792;9.260;2022-09-13T04:00:15;15.50;99.90
15357;DHT22;7778;48.792;9.260;2022-09-13T04:03:03;15.60;99.90
15357;DHT22;7778;48.792;9.260;2022-09-13T04:05:49;15.50;99.90
15357;DHT22;7778;48.792;9.260;2022-09-13T04:08:35;15.70;99.90
15357;DHT22;7778;48.792;9.260;2022-09-13T04:11:29;15.60;99.90
15357;DHT22;7778;48.792;9.260;2022-09-13T04:14:31;15.60;99.90
15357;DHT22;7778;48.792;9.260;2022-09-13T04:17:29;15.40;99.90
15357;DHT22;7778;48.792;9.260;2022-09-13T04:20:16;15.40;99.90
15357;DHT22;7778;48.792;9.260;2022-09-13T04:23:02;15.50;99.90
15357;DHT22;7778;48.792;9.260;2022-09-13T04:25:48;15.50;99.90
15357;DHT22;7778;48.792;9.260;2022-09-13T04:28:34;15.50;99.90
15357;DHT22;7778;48.792;9.260;2022-09-13T04:31:29;15.50;99.90
15357;DHT22;7778;48.792;9.260;2022-09-13T04:34:15;15.50;99.90
15357;DHT22;7778;48.792;9.260;2022-09-13T04:37:03;15.60;99.90
15357;DHT22;7778;48.792;9.260;2022-09-13T04:39:48;15.50;99.90
15357;DHT22;7778;48.792;9.260;2022-09-13T04:42:34;15.40;99.90
15357;DHT22;7778;48.792;9.260;2022-09-13T04:45:20;15.40;99.90
15357;DHT22;7778;48.792;9.260;2022-09-13T04:48:05;15.40;99.90
15357;DHT22;7778;48.792;9.260;2022-09-13T04:50:51;15.20;99.90
15357;DHT22;7778;48.792;9.260;2022-09-13T04:53:38;15.10;99.90
15357;DHT22;7778;48.792;9.260;2022-09-13T04:56:24;14.90;99.90
15357;DHT22;7778;48.792;9.260;2022-09-13T04:59:10;14.80;99.90
15357;DHT22;7778;48.792;9.260;2022-09-13T05:01:56;14.80;99.90
15357;DHT22;7778;48.792;9.260;2022-09-13T05:04:42;15.00;99.90
15357;DHT22;7778;48.792;9.260;2022-09-13T05:07:30;15.10;99.90
15357;DHT22;7778;48.792;9.260;2022-09-13T05:10:33;15.40;99.90
15357;DHT22;7778;48.792;9.260;2022-09-13T05:13:31;15.60;99.90
15357;DHT22;7778;48.792;9.260;2022-09-13T05:16:31;15.70;99.90
15357;DHT22;7778;48.792;9.260;2022-09-13T05:19:23;15.90;99.90
15357;DHT22;7778;48.792;9.260;2022-09-13T05:22:09;16.00;99.90
15357;DHT22;7778;48.792;9.260;2022-09-13T05:24:54;16.00;99.90
15357;DHT22;7778;48.792;9.260;2022-09-13T05:27:44;15.80;99.90
15357;DHT22;7778;48.792;9.260;2022-09-13T05:30:30;15.80;99.90
15357;DHT22;7778;48.792;9.260;2022-09-13T05:33:32;15.80;99.90
15357;DHT22;7778;48.792;9.260;2022-09-13T05:36:26;15.90;99.90
15357;DHT22;7778;48.792;9.260;2022-09-13T05:39:15;16.00;99.90
15357;DHT22;7778;48.792;9.260;2022-09-13T05:42:05;16.10;99.90
15357;DHT22;7778;48.792;9.260;2022-09-13T05:44:52;16.20;99.90
15357;DHT22;7778;48.792;9.260;2022-09-13T05:47:37;16.30;99.90
15357;DHT22;7778;48.792;9.260;2022-09-13T05:50:29;16.30;99.90
15357;DHT22;7778;48.792;9.260;2022-09-13T05:53:15;16.30;99.90
15357;DHT22;7778;48.792;9.260;2022-09-13T05:56:01;16.30;99.90
15357;DHT22;7778;48.792;9.260;2022-09-13T05:58:48;16.30;99.90
15357;DHT22;7778;48.792;9.260;2022-09-13T06:01:36;16.30;99.90
15357;DHT22;7778;48.792;9.260;2022-09-13T06:04:31;16.30;99.90
15357;DHT22;7778;48.792;9.260;2022-09-13T06:07:31;16.40;99.90
15357;DHT22;7778;48.792;9.260;2022-09-13T06:10:30;16.40;99.90
15357;DHT22;7778;48.792;9.260;2022-09-13T06:13:26;16.40;99.90
15357;DHT22;7778;48.792;9.260;2022-09-13T06:16:15;16.60;99.90
15357;DHT22;7778;48.792;9.260;2022-09-13T06:19:03;16.80;99.90
15357;DHT22;7778;48.792;9.260;2022-09-13T06:21:49;16.90;99.90
15357;DHT22;7778;48.792;9.260;2022-09-13T06:24:34;17.00;99.90
15357;DHT22;7778;48.792;9.260;2022-09-13T06:27:30;17.20;99.90
15357;DHT22;7778;48.792;9.260;2022-09-13T06:30:31;17.30;99.90
15357;DHT22;7778;48.792;9.260;2022-09-13T06:33:33;17.40;99.90
15357;DHT22;7778;48.792;9.260;2022-09-13T06:36:27;17.40;99.90
15357;DHT22;7778;48.792;9.260;2022-09-13T06:39:13;17.40;99.90
15357;DHT22;7778;48.792;9.260;2022-09-13T06:41:58;17.40;99.90
15357;DHT22;7778;48.792;9.260;2022-09-13T06:44:44;17.20;99.90
15357;DHT22;7778;48.792;9.260;2022-09-13T06:47:31;17.20;99.90
15357;DHT22;7778;48.792;9.260;2022-09-13T06:50:32;17.20;99.90
15357;DHT22;7778;48.792;9.260;2022-09-13T06:53:19;17.30;99.90
15357;DHT22;7778;48.792;9.260;2022-09-13T06:56:07;17.30;99.90
15357;DHT22;7778;48.792;9.260;2022-09-13T06:58:55;17.50;99.90
15357;DHT22;7778;48.792;9.260;2022-09-13T07:01:42;17.80;99.90
15357;DHT22;7778;48.792;9.260;2022-09-13T07:04:32;18.10;99.90
15357;DHT22;7778;48.792;9.260;2022-09-13T07:07:30;18.50;99.90
15357;DHT22;7778;48.792;9.260;2022-09-13T07:10:20;18.80;99.90
15357;DHT22;7778;48.792;9.260;2022-09-13T07:13:08;18.80;99.90
15357;DHT22;7778;48.792;9.260;2022-09-13T07:15:54;18.80;99.90
15357;DHT22;7778;48.792;9.260;2022-09-13T07:18:40;19.10;99.90
15357;DHT22;7778;48.792;9.260;2022-09-13T07:21:26;19.20;99.90
15357;DHT22;7778;48.792;9.260;2022-09-13T07:24:12;18.60;99.90
15357;DHT22;7778;48.792;9.260;2022-09-13T07:26:59;18.70;99.90
15357;DHT22;7778;48.792;9.260;2022-09-13T07:29:44;18.80;99.90
15357;DHT22;7778;48.792;9.260;2022-09-13T07:32:31;19.10;99.90
15357;DHT22;7778;48.792;9.260;2022-09-13T07:35:23;19.20;99.90
15357;DHT22;7778;48.792;9.260;2022-09-13T07:38:14;18.90;99.90
15357;DHT22;7778;48.792;9.260;2022-09-13T07:41:00;18.80;99.90
15357;DHT22;7778;48.792;9.260;2022-09-13T07:43:49;19.10;99.90
15357;DHT22;7778;48.792;9.260;2022-09-13T07:46:36;19.50;99.90
15357;DHT22;7778;48.792;9.260;2022-09-13T07:49:31;19.80;99.90
15357;DHT22;7778;48.792;9.260;2022-09-13T07:52:16;19.80;99.90
15357;DHT22;7778;48.792;9.260;2022-09-13T07:55:10;19.60;99.90
15357;DHT22;7778;48.792;9.260;2022-09-13T07:57:56;20.00;99.90
15357;DHT22;7778;48.792;9.260;2022-09-13T08:00:44;21.00;99.90
15357;DHT22;7778;48.792;9.260;2022-09-13T08:03:34;21.40;99.90
15357;DHT22;7778;48.792;9.260;2022-09-13T08:06:33;21.90;99.90
15357;DHT22;7778;48.792;9.260;2022-09-13T08:09:19;22.20;99.90
15357;DHT22;7778;48.792;9.260;2022-09-13T08:12:05;22.00;99.90
15357;DHT22;7778;48.792;9.260;2022-09-13T08:14:51;22.40;99.90
15357;DHT22;7778;48.792;9.260;2022-09-13T08:17:38;22.90;99.90
15357;DHT22;7778;48.792;9.260;2022-09-13T08:20:35;23.10;99.90
15357;DHT22;7778;48.792;9.260;2022-09-13T08:23:27;23.40;99.90
15357;DHT22;7778;48.792;9.260;2022-09-13T08:26:14;23.40;99.90
15357;DHT22;7778;48.792;9.260;2022-09-13T08:29:02;23.30;99.90
15357;DHT22;7778;48.792;9.260;2022-09-13T08:31:48;23.60;99.90
15357;DHT22;7778;48.792;9.260;2022-09-13T08:34:35;23.30;99.90
15357;DHT22;7778;48.792;9.260;2022-09-13T08:37:30;23.50;99.90
15357;DHT22;7778;48.792;9.260;2022-09-13T08:40:18;23.40;99.90
15357;DHT22;7778;48.792;9.260;2022-09-13T08:43:06;23.50;99.90
15357;DHT22;7778;48.792;9.260;2022-09-13T08:46:00;24.00;99.90
15357;DHT22;7778;48.792;9.260;2022-09-13T08:58:38;24.70;99.90
15357;DHT22;7778;48.792;9.260;2022-09-13T09:01:41;24.70;99.90
15357;DHT22;7778;48.792;9.260;2022-09-13T09:04:38;25.90;99.90
15357;DHT22;7778;48.792;9.260;2022-09-13T09:07:30;27.50;99.90
15357;DHT22;7778;48.792;9.260;2022-09-13T09:10:28;26.70;99.90
15357;DHT22;7778;48.792;9.260;2022-09-13T09:13:21;26.00;99.90
15357;DHT22;7778;48.792;9.260;2022-09-13T09:16:25;26.00;99.90
15357;DHT22;7778;48.792;9.260;2022-09-13T09:19:19;26.00;99.90
15357;DHT22;7778;48.792;9.260;2022-09-13T09:22:16;25.80;99.90
15357;DHT22;7778;48.792;9.260;2022-09-13T09:25:12;25.50;99.90
15357;DHT22;7778;48.792;9.260;2022-09-13T09:27:58;25.50;99.90
15357;DHT22;7778;48.792;9.260;2022-09-13T09:30:50;26.30;99.90
15357;DHT22;7778;48.792;9.260;2022-09-13T09:33:55;27.50;99.90
15357;DHT22;7778;48.792;9.260;2022-09-13T09:36:53;28.20;99.90
15357;DHT22;7778;48.792;9.260;2022-09-13T09:39:43;28.10;99.90
15357;DHT22;7778;48.792;9.260;2022-09-13T09:42:38;27.20;99.90
15357;DHT22;7778;48.792;9.260;2022-09-13T09:45:33;26.70;99.90
15357;DHT22;7778;48.792;9.260;2022-09-13T09:48:29;26.90;99.90
15357;DHT22;7778;48.792;9.260;2022-09-13T09:51:32;27.20;99.90
15357;DHT22;7778;48.792;9.260;2022-09-13T09:54:30;27.90;99.90
15357;DHT22;7778;48.792;9.260;2022-09-13T09:57:20;29.10;99.90
15357;DHT22;7778;48.792;9.260;2022-09-13T10:00:10;30.00;99.90
15357;DHT22;7778;48.792;9.260;2022-09-13T10:03:00;29.80;99.90
15357;DHT22;7778;48.792;9.260;2022-09-13T10:05:48;29.40;99.90
15357;DHT22;7778;48.792;9.260;2022-09-13T10:08:37;29.10;99.90
15357;DHT22;7778;48.792;9.260;2022-09-13T10:11:38;28.70;99.90
15357;DHT22;7778;48.792;9.260;2022-09-13T10:14:38;28.60;99.90
15357;DHT22;7778;48.792;9.260;2022-09-13T10:17:26;28.50;99.90
15357;DHT22;7778;48.792;9.260;2022-09-13T10:20:28;28.70;99.90
15357;DHT22;7778;48.792;9.260;2022-09-13T10:23:19;29.10;99.90
15357;DHT22;7778;48.792;9.260;2022-09-13T10:26:15;29.60;99.90
15357;DHT22;7778;48.792;9.260;2022-09-13T10:29:06;30.60;99.90
15357;DHT22;7778;48.792;9.260;2022-09-13T10:31:54;31.20;99.10
15357;DHT22;7778;48.792;9.260;2022-09-13T10:34:42;32.00;98.30
15357;DHT22;7778;48.792;9.260;2022-09-13T10:37:30;33.00;94.50
15357;DHT22;7778;48.792;9.260;2022-09-13T10:40:32;33.60;92.70
15357;DHT22;7778;48.792;9.260;2022-09-13T10:43:28;33.00;91.40
15357;DHT22;7778;48.792;9.260;2022-09-13T10:46:21;33.20;90.20
15357;DHT22;7778;48.792;9.260;2022-09-13T10:49:35;32.90;92.10
15357;DHT22;7778;48.792;9.260;2022-09-13T10:52:31;32.50;86.90
15357;DHT22;7778;48.792;9.260;2022-09-13T10:55:32;31.10;87.60
15357;DHT22;7778;48.792;9.260;2022-09-13T10:58:30;31.00;90.00
15357;DHT22;7778;48.792;9.260;2022-09-13T11:01:40;31.40;90.20
15357;DHT22;7778;48.792;9.260;2022-09-13T11:04:55;31.80;86.50
15357;DHT22;7778;48.792;9.260;2022-09-13T11:11:30;33.30;82.00
15357;DHT22;7778;48.792;9.260;2022-09-13T11:14:43;32.90;79.20
15357;DHT22;7778;48.792;9.260;2022-09-13T11:21:11;32.50;79.00
15357;DHT22;7778;48.792;9.260;2022-09-13T11:24:18;31.20;74.90
15357;DHT22;7778;48.792;9.260;2022-09-13T11:27:18;30.50;78.00
15357;DHT22;7778;48.792;9.260;2022-09-13T11:30:14;29.90;78.70
15357;DHT22;7778;48.792;9.260;2022-09-13T11:33:26;30.00;83.40
15357;DHT22;7778;48.792;9.260;2022-09-13T11:36:45;30.20;80.80
15357;DHT22;7778;48.792;9.260;2022-09-13T11:39:38;30.00;74.20
15357;DHT22;7778;48.792;9.260;2022-09-13T11:42:39;29.90;77.90
15357;DHT22;7778;48.792;9.260;2022-09-13T11:45:38;29.80;77.40
15357;DHT22;7778;48.792;9.260;2022-09-13T11:52:02;30.00;76.50
15357;DHT22;7778;48.792;9.260;2022-09-13T11:55:03;30.00;76.30
15357;DHT22;7778;48.792;9.260;2022-09-13T11:58:02;30.20;79.90
15357;DHT22;7778;48.792;9.260;2022-09-13T12:00:55;30.50;78.10
15357;DHT22;7778;48.792;9.260;2022-09-13T12:03:49;30.20;70.00
15357;DHT22;7778;48.792;9.260;2022-09-13T12:06:39;29.90;72.00
15357;DHT22;7778;48.792;9.260;2022-09-13T12:09:33;29.70;72.00
15357;DHT22;7778;48.792;9.260;2022-09-13T12:12:33;29.60;72.70
15357;DHT22;7778;48.792;9.260;2022-09-13T12:15:34;29.70;74.30
15357;DHT22;7778;48.792;9.260;2022-09-13T12:18:31;29.90;74.70
15357;DHT22;7778;48.792;9.260;2022-09-13T12:21:30;30.10;73.60
15357;DHT22;7778;48.792;9.260;2022-09-13T12:24:34;29.40;70.80
15357;DHT22;7778;48.792;9.260;2022-09-13T12:27:33;29.00;71.70
15357;DHT22;7778;48.792;9.260;2022-09-13T12:30:31;29.10;71.10
15357;DHT22;7778;48.792;9.260;2022-09-13T12:33:25;29.20;68.50
15357;DHT22;7778;48.792;9.260;2022-09-13T12:36:48;29.20;64.30
15357;DHT22;7778;48.792;9.260;2022-09-13T12:39:59;29.10;63.40
15357;DHT22;7778;48.792;9.260;2022-09-13T12:43:11;29.20;62.50
15357;DHT22;7778;48.792;9.260;2022-09-13T12:46:23;29.50;70.40
15357;DHT22;7778;48.792;9.260;2022-09-13T12:49:33;29.20;60.70
15357;DHT22;7778;48.792;9.260;2022-09-13T12:52:36;29.20;60.60
15357;DHT22;7778;48.792;9.260;2022-09-13T12:55:40;29.60;65.40
15357;DHT22;7778;48.792;9.260;2022-09-13T12:58:58;29.50;59.60
15357;DHT22;7778;48.792;9.260;2022-09-13T13:02:24;29.20;57.70
15357;DHT22;7778;48.792;9.260;2022-09-13T13:05:35;28.90;59.10
15357;DHT22;7778;48.792;9.260;2022-09-13T13:08:27;29.10;59.00
15357;DHT22;7778;48.792;9.260;2022-09-13T13:11:14;29.00;61.50
15357;DHT22;7778;48.792;9.260;2022-09-13T13:14:02;29.00;61.60
15357;DHT22;7778;48.792;9.260;2022-09-13T13:16:53;29.10;66.40
15357;DHT22;7778;48.792;9.260;2022-09-13T13:19:38;29.10;66.00
15357;DHT22;7778;48.792;9.260;2022-09-13T13:22:50;29.20;66.00
15357;DHT22;7778;48.792;9.260;2022-09-13T13:25:37;28.90;67.50
15357;DHT22;7778;48.792;9.260;2022-09-13T13:32:11;28.50;70.30
15357;DHT22;7778;48.792;9.260;2022-09-13T13:35:29;28.50;72.10
15357;DHT22;7778;48.792;9.260;2022-09-13T13:38:47;28.40;72.30
15357;DHT22;7778;48.792;9.260;2022-09-13T13:41:46;28.20;72.90
15357;DHT22;7778;48.792;9.260;2022-09-13T13:45:18;28.20;73.40
15357;DHT22;7778;48.792;9.260;2022-09-13T13:48:12;28.40;73.40
15357;DHT22;7778;48.792;9.260;2022-09-13T13:51:18;28.30;72.90
15357;DHT22;7778;48.792;9.260;2022-09-13T13:54:27;28.20;72.60
15357;DHT22;7778;48.792;9.260;2022-09-13T13:57:40;28.30;72.90
15357;DHT22;7778;48.792;9.260;2022-09-13T14:00:35;28.10;72.60
15357;DHT22;7778;48.792;9.260;2022-09-13T14:03:48;27.90;72.60
15357;DHT22;7778;48.792;9.260;2022-09-13T14:06:47;27.90;73.00
15357;DHT22;7778;48.792;9.260;2022-09-13T14:09:42;27.90;73.90
15357;DHT22;7778;48.792;9.260;2022-09-13T14:12:48;27.90;74.20
15357;DHT22;7778;48.792;9.260;2022-09-13T14:15:48;27.90;74.30
15357;DHT22;7778;48.792;9.260;2022-09-13T14:18:48;27.90;75.00
15357;DHT22;7778;48.792;9.260;2022-09-13T14:21:40;28.00;73.90
15357;DHT22;7778;48.792;9.260;2022-09-13T14:24:35;28.10;74.10
15357;DHT22;7778;48.792;9.260;2022-09-13T14:27:33;28.20;73.80
15357;DHT22;7778;48.792;9.260;2022-09-13T14:30:33;28.30;75.10
15357;DHT22;7778;48.792;9.260;2022-09-13T14:33:28;28.30;75.50
15357;DHT22;7778;48.792;9.260;2022-09-13T14:36:22;28.10;74.40
15357;DHT22;7778;48.792;9.260;2022-09-13T14:39:10;27.90;75.20
15357;DHT22;7778;48.792;9.260;2022-09-13T14:42:00;27.80;76.30
15357;DHT22;7778;48.792;9.260;2022-09-13T14:44:47;27.80;75.90
15357;DHT22;7778;48.792;9.260;2022-09-13T14:47:39;27.90;76.20
15357;DHT22;7778;48.792;9.260;2022-09-13T14:50:35;27.90;77.90
15357;DHT22;7778;48.792;9.260;2022-09-13T14:53:26;28.00;76.70
15357;DHT22;7778;48.792;9.260;2022-09-13T14:56:15;28.00;77.60
15357;DHT22;7778;48.792;9.260;2022-09-13T14:59:04;27.80;76.70
15357;DHT22;7778;48.792;9.260;2022-09-13T15:01:58;27.70;76.70
15357;DHT22;7778;48.792;9.260;2022-09-13T15:04:54;27.70;77.10
15357;DHT22;7778;48.792;9.260;2022-09-13T15:07:41;27.60;77.30
15357;DHT22;7778;48.792;9.260;2022-09-13T15:10:31;27.50;78.50
15357;DHT22;7778;48.792;9.260;2022-09-13T15:13:30;27.40;77.30
15357;DHT22;7778;48.792;9.260;2022-09-13T15:16:31;27.20;77.60
15357;DHT22;7778;48.792;9.260;2022-09-13T15:19:34;27.10;78.10
15357;DHT22;7778;48.792;9.260;2022-09-13T15:22:33;27.00;78.90
15357;DHT22;7778;48.792;9.260;2022-09-13T15:25:31;26.90;79.20
15357;DHT22;7778;48.792;9.260;2022-09-13T15:28:27;26.90;79.20
15357;DHT22;7778;48.792;9.260;2022-09-13T15:31:19;26.80;79.30
15357;DHT22;7778;48.792;9.260;2022-09-13T15:34:21;26.70;78.30
15357;DHT22;7778;48.792;9.260;2022-09-13T15:37:33;26.60;79.20
15357;DHT22;7778;48.792;9.260;2022-09-13T15:40:41;26.70;78.40
15357;DHT22;7778;48.792;9.260;2022-09-13T15:43:31;26.60;75.90
15357;DHT22;7778;48.792;9.260;2022-09-13T15:46:36;26.60;75.30
15357;DHT22;7778;48.792;9.260;2022-09-13T15:49:28;26.60;75.30
15357;DHT22;7778;48.792;9.260;2022-09-13T15:52:14;26.60;74.90
15357;DHT22;7778;48.792;9.260;2022-09-13T15:55:03;26.60;74.00
15357;DHT22;7778;48.792;9.260;2022-09-13T15:57:49;26.50;74.00
15357;DHT22;7778;48.792;9.260;2022-09-13T16:00:35;26.50;74.90
15357;DHT22;7778;48.792;9.260;2022-09-13T16:03:30;26.40;74.60
15357;DHT22;7778;48.792;9.260;2022-09-13T16:06:16;26.40;77.20
15357;DHT22;7778;48.792;9.260;2022-09-13T16:09:32;26.40;77.30
15357;DHT22;7778;48.792;9.260;2022-09-13T16:12:31;26.30;78.90
15357;DHT22;7778;48.792;9.260;2022-09-13T16:15:17;26.20;80.70
15357;DHT22;7778;48.792;9.260;2022-09-13T16:18:06;26.10;82.70
15357;DHT22;7778;48.792;9.260;2022-09-13T16:20:51;26.00;84.50
15357;DHT22;7778;48.792;9.260;2022-09-13T16:23:37;26.00;85.50
15357;DHT22;7778;48.792;9.260;2022-09-13T16:26:28;25.90;86.50
15357;DHT22;7778;48.792;9.260;2022-09-13T16:29:16;25.90;87.30
15357;DHT22;7778;48.792;9.260;2022-09-13T16:32:04;25.80;88.30
15357;DHT22;7778;48.792;9.260;2022-09-13T16:34:50;25.70;88.90
15357;DHT22;7778;48.792;9.260;2022-09-13T16:37:36;25.70;87.10
15357;DHT22;7778;48.792;9.260;2022-09-13T16:40:32;25.70;86.40
15357;DHT22;7778;48.792;9.260;2022-09-13T16:43:29;25.70;84.40
15357;DHT22;7778;48.792;9.260;2022-09-13T16:46:32;25.70;83.60
15357;DHT22;7778;48.792;9.260;2022-09-13T16:49:31;25.60;84.50
15357;DHT22;7778;48.792;9.260;2022-09-13T16:52:32;25.60;83.50
15357;DHT22;7778;48.792;9.260;2022-09-13T16:55:31;25.60;83.80
15357;DHT22;7778;48.792;9.260;2022-09-13T16:58:35;25.60;83.90
15357;DHT22;7778;48.792;9.260;2022-09-13T17:01:22;25.50;83.80
15357;DHT22;7778;48.792;9.260;2022-09-13T17:04:10;25.40;84.00
15357;DHT22;7778;48.792;9.260;2022-09-13T17:06:56;25.40;84.50
15357;DHT22;7778;48.792;9.260;2022-09-13T17:09:41;25.30;85.10
15357;DHT22;7778;48.792;9.260;2022-09-13T17:12:27;25.20;85.90
15357;DHT22;7778;48.792;9.260;2022-09-13T17:15:30;25.20;86.80
15357;DHT22;7778;48.792;9.260;2022-09-13T17:18:32;25.20;87.50
15357;DHT22;7778;48.792;9.260;2022-09-13T17:21:32;25.10;89.00
15357;DHT22;7778;48.792;9.260;2022-09-13T17:24:30;25.10;88.00
15357;DHT22;7778;48.792;9.260;2022-09-13T17:27:31;25.10;88.40
15357;DHT22;7778;48.792;9.260;2022-09-13T17:30:17;25.00;88.30
15357;DHT22;7778;48.792;9.260;2022-09-13T17:33:03;25.10;88.60
15357;DHT22;7778;48.792;9.260;2022-09-13T17:35:57;25.00;89.40
15357;DHT22;7778;48.792;9.260;2022-09-13T17:38:45;25.00;90.00
15357;DHT22;7778;48.792;9.260;2022-09-13T17:41:30;24.90;90.10
15357;DHT22;7778;48.792;9.260;2022-09-13T17:44:25;24.90;90.30
15357;DHT22;7778;48.792;9.260;2022-09-13T17:47:11;24.90;90.40
15357;DHT22;7778;48.792;9.260;2022-09-13T17:50:27;24.80;90.60
15357;DHT22;7778;48.792;9.260;2022-09-13T17:53:15;24.80;90.00
15357;DHT22;7778;48.792;9.260;2022-09-13T17:56:06;24.70;90.10
15357;DHT22;7778;48.792;9.260;2022-09-13T17:58:52;24.70;90.40
15357;DHT22;7778;48.792;9.260;2022-09-13T18:01:39;24.50;91.20
15357;DHT22;7778;48.792;9.260;2022-09-13T18:04:29;24.50;90.90
15357;DHT22;7778;48.792;9.260;2022-09-13T18:07:29;24.50;91.00
15357;DHT22;7778;48.792;9.260;2022-09-13T18:10:31;24.40;91.50
15357;DHT22;7778;48.792;9.260;2022-09-13T18:13:33;24.30;91.60
15357;DHT22;7778;48.792;9.260;2022-09-13T18:16:31;24.20;92.30
15357;DHT22;7778;48.792;9.260;2022-09-13T18:19:29;24.10;92.40
15357;DHT22;7778;48.792;9.260;2022-09-13T18:22:27;24.00;93.50
15357;DHT22;7778;48.792;9.260;2022-09-13T18:28:32;23.70;94.40
15357;DHT22;7778;48.792;9.260;2022-09-13T18:31:18;23.60;94.50
15357;DHT22;7778;48.792;9.260;2022-09-13T18:34:06;23.60;95.20
15357;DHT22;7778;48.792;9.260;2022-09-13T18:36:52;23.50;96.10
15357;DHT22;7778;48.792;9.260;2022-09-13T18:39:38;23.30;96.90
15357;DHT22;7778;48.792;9.260;2022-09-13T18:42:24;23.10;96.70
15357;DHT22;7778;48.792;9.260;2022-09-13T18:45:15;23.10;96.20
15357;DHT22;7778;48.792;9.260;2022-09-13T18:48:32;23.10;98.50
15357;DHT22;7778;48.792;9.260;2022-09-13T18:51:29;23.00;99.30
15357;DHT22;7778;48.792;9.260;2022-09-13T18:54:25;23.00;99.90
15357;DHT22;7778;48.792;9.260;2022-09-13T18:57:13;22.80;99.90
15357;DHT22;7778;48.792;9.260;2022-09-13T18:59:59;22.80;99.90
15357;DHT22;7778;48.792;9.260;2022-09-13T19:02:48;22.60;99.90
15357;DHT22;7778;48.792;9.260;2022-09-13T19:05:36;22.50;99.90
15357;DHT22;7778;48.792;9.260;2022-09-13T19:08:32;22.50;99.90
15357;DHT22;7778;48.792;9.260;2022-09-13T19:11:35;22.40;99.90
15357;DHT22;7778;48.792;9.260;2022-09-13T19:14:33;22.40;99.90
15357;DHT22;7778;48.792;9.260;2022-09-13T19:17:31;22.50;99.90
15357;DHT22;7778;48.792;9.260;2022-09-13T19:20:34;22.50;99.90